Time,TemperatureF,DewpointF,PressureIn,WindDirection,WindDirectionDegrees,WindSpeedMPH,WindSpeedGustMPH,Humidity,HourlyPrecipIn,Conditions,Clouds,dailyrainin,SoftwareType,DateUTC
2013-01-20 00:00:00,20.4,9.1,29.96,WNW,292,15.0,33.0,61,0.00,,FEW046,0.00,VWS V14.01,2013-01-20 06:00:00,
2013-01-20 00:08:00,20.1,9.0,29.97,WNW,292,10.0,23.0,61,0.00,,,0.00,weatherlink.com 1.10,2013-01-20 06:08:00,
2013-01-20 00:23:00,19.2,7.0,29.98,WNW,287,10.0,30.0,60,0.00,,,0.00,weatherlink.com 1.10,2013-01-20 06:23:00,
2013-01-20 00:30:00,18.8,7.2,29.99,WNW,292,13.0,30.0,60,0.00,,FEW046,0.00,VWS V14.01,2013-01-20 06:30:00,
2013-01-20 00:38:00,18.6,7.0,30.00,WNW,299,10.0,22.0,61,0.00,,,0.00,weatherlink.com 1.10,2013-01-20 06:38:00,
2013-01-20 00:53:00,18.3,8.0,30.01,SE,141,7.0,24.0,63,0.00,,,0.00,weatherlink.com 1.10,2013-01-20 06:53:00,
2013-01-20 01:00:00,18.0,7.9,30.01,WNW,292,10.0,25.0,64,0.00,,FEW046,0.00,VWS V14.01,2013-01-20 07:00:00,
2013-01-20 01:08:00,17.7,8.0,30.02,NNE,22,12.0,20.0,65,0.00,,,0.00,weatherlink.com 1.10,2013-01-20 07:08:00,
2013-01-20 01:23:00,16.9,7.0,30.04,West,276,13.0,22.0,65,0.00,,,0.00,weatherlink.com 1.10,2013-01-20 07:23:00,
2013-01-20 01:30:00,16.7,7.3,30.04,WNW,292,11.0,31.0,66,0.00,,FEW046,0.00,VWS V14.01,2013-01-20 07:30:00,
2013-01-20 01:38:00,16.4,7.0,30.05,NW,309,8.0,22.0,66,0.00,,,0.00,weatherlink.com 1.10,2013-01-20 07:38:00,
2013-01-20 01:53:00,15.9,6.0,30.05,WNW,288,19.0,25.0,66,0.00,,,0.00,weatherlink.com 1.10,2013-01-20 07:53:00,
2013-01-20 02:00:00,15.5,5.8,30.06,WNW,292,11.0,24.0,65,0.00,,FEW046,0.00,VWS V14.01,2013-01-20 08:00:00,
2013-01-20 02:08:00,15.1,5.0,30.08,WNW,298,10.0,23.0,63,0.00,,,0.00,weatherlink.com 1.10,2013-01-20 08:08:00,
2013-01-20 02:23:00,14.6,4.0,30.09,WNW,294,4.0,23.0,63,0.00,,,0.00,weatherlink.com 1.10,2013-01-20 08:23:00,
2013-01-20 02:30:00,14.5,4.2,30.09,WNW,292,10.0,23.0,63,0.00,,FEW046,0.00,VWS V14.01,2013-01-20 08:30:00,
2013-01-20 02:38:00,14.3,4.0,30.10,WNW,296,8.0,21.0,65,0.00,,,0.00,weatherlink.com 1.10,2013-01-20 08:38:00,
2013-01-20 02:53:00,14.1,4.0,30.11,SW,236,10.0,21.0,65,0.00,,,0.00,weatherlink.com 1.10,2013-01-20 08:53:00,
2013-01-20 03:00:00,14.1,5.5,30.12,WNW,292,10.0,27.0,68,0.00,,FEW046,0.00,VWS V14.01,2013-01-20 09:00:00,
2013-01-20 03:08:00,13.9,5.0,30.13,NNW,340,11.0,17.0,69,0.00,,,0.00,weatherlink.com 1.10,2013-01-20 09:08:00,
2013-01-20 03:23:00,13.0,3.0,30.14,East,84,15.0,23.0,65,0.00,,,0.00,weatherlink.com 1.10,2013-01-20 09:23:00,
2013-01-20 03:30:00,12.8,3.3,30.15,WNW,292,9.0,22.0,65,0.00,,FEW046,0.00,VWS V14.01,2013-01-20 09:30:00,
2013-01-20 03:38:00,12.8,4.0,30.15,West,280,8.0,15.0,67,0.00,,,0.00,weatherlink.com 1.10,2013-01-20 09:38:00,
2013-01-20 03:53:00,12.4,3.0,30.15,NE,46,4.0,21.0,66,0.00,,,0.00,weatherlink.com 1.10,2013-01-20 09:53:00,
2013-01-20 04:00:00,12.2,3.0,30.16,WNW,292,7.0,20.0,66,0.00,,FEW046,0.00,VWS V14.01,2013-01-20 10:00:00,
2013-01-20 04:09:00,11.9,3.0,30.16,WNW,290,13.0,17.0,67,0.00,,,0.00,weatherlink.com 1.10,2013-01-20 10:09:00,
2013-01-20 04:24:00,11.6,3.0,30.17,NW,319,8.0,16.0,67,0.00,,,0.00,weatherlink.com 1.10,2013-01-20 10:24:00,
2013-01-20 04:30:00,11.6,2.8,30.17,WNW,292,7.0,17.0,67,0.00,,FEW046,0.00,VWS V14.01,2013-01-20 10:30:00,
2013-01-20 04:39:00,11.5,3.0,30.17,West,263,6.0,14.0,68,0.00,,,0.00,weatherlink.com 1.10,2013-01-20 10:39:00,
2013-01-20 04:54:00,11.2,3.0,30.18,West,280,10.0,16.0,68,0.00,,,0.00,weatherlink.com 1.10,2013-01-20 10:54:00,
2013-01-20 05:00:00,11.2,2.7,30.18,WNW,292,6.0,17.0,68,0.00,,FEW046,0.00,VWS V14.01,2013-01-20 11:00:00,
2013-01-20 05:09:00,11.1,3.0,30.20,NW,313,5.0,13.0,70,0.00,,,0.00,weatherlink.com 1.10,2013-01-20 11:09:00,
2013-01-20 05:24:00,10.9,3.0,30.20,West,281,6.0,20.0,70,0.00,,,0.00,weatherlink.com 1.10,2013-01-20 11:24:00,
2013-01-20 05:30:00,10.8,2.6,30.20,WNW,292,6.0,19.0,69,0.00,,FEW046,0.00,VWS V14.01,2013-01-20 11:30:00,
2013-01-20 05:39:00,10.8,2.0,30.21,NW,318,3.0,13.0,68,0.00,,,0.00,weatherlink.com 1.10,2013-01-20 11:39:00,
2013-01-20 05:54:00,10.6,3.0,30.22,NW,321,4.0,18.0,71,0.00,,,0.00,weatherlink.com 1.10,2013-01-20 11:54:00,
2013-01-20 06:00:00,10.6,3.1,30.22,WNW,292,6.0,18.0,71,0.00,,FEW046,0.00,VWS V14.01,2013-01-20 12:00:00,
2013-01-20 06:09:00,10.4,3.0,30.22,NE,54,4.0,13.0,71,0.00,,,0.00,weatherlink.com 1.10,2013-01-20 12:09:00,
2013-01-20 06:24:00,10.1,2.0,30.24,WNW,288,7.0,10.0,70,0.00,,,0.00,weatherlink.com 1.10,2013-01-20 12:24:00,
2013-01-20 06:34:00,10.6,3.1,30.22,WNW,292,6.0,18.0,71,0.00,,FEW046,0.00,VWS V14.01,2013-01-20 12:34:00,
2013-01-20 06:39:00,9.8,1.4,30.25,WNW,288,9.0,9.0,68,0.00,,CLR,0.00,VWS V14.01,2013-01-20 12:39:00,
2013-01-20 06:44:00,9.7,1.3,30.25,West,280,6.0,11.0,68,0.00,,CLR,0.00,VWS V14.01,2013-01-20 12:44:00,
2013-01-20 06:49:00,9.6,0.9,30.25,NNW,346,6.0,11.0,67,0.00,,CLR,0.00,VWS V14.01,2013-01-20 12:49:00,
2013-01-20 06:54:00,9.6,1.2,30.25,NW,322,3.0,11.0,68,0.00,,CLR,0.00,VWS V14.01,2013-01-20 12:54:00,
2013-01-20 06:59:00,9.5,1.1,30.25,West,281,0.0,11.0,68,0.00,,CLR,0.00,VWS V14.01,2013-01-20 12:59:00,
2013-01-20 07:04:00,9.4,1.3,30.25,WNW,284,5.0,11.0,69,0.00,,CLR,0.00,VWS V14.01,2013-01-20 13:04:00,
2013-01-20 07:09:00,9.4,1.3,30.25,West,280,4.0,11.0,69,0.00,,CLR,0.00,VWS V14.01,2013-01-20 13:09:00,
2013-01-20 07:14:00,9.4,1.3,30.26,NNW,337,2.0,11.0,69,0.00,,CLR,0.00,VWS V14.01,2013-01-20 13:14:00,
2013-01-20 07:19:00,9.4,1.6,30.26,WNW,283,8.0,11.0,70,0.00,,CLR,0.00,VWS V14.01,2013-01-20 13:19:00,
2013-01-20 07:24:00,9.4,1.3,30.26,WNW,291,6.0,11.0,69,0.00,,CLR,0.00,VWS V14.01,2013-01-20 13:24:00,
2013-01-20 07:29:00,9.5,1.4,30.27,NW,322,5.0,11.0,69,0.00,,CLR,0.00,VWS V14.01,2013-01-20 13:29:00,
2013-01-20 07:34:00,9.5,1.4,30.27,NW,309,4.0,9.0,69,0.00,,CLR,0.00,VWS V14.01,2013-01-20 13:34:00,
2013-01-20 07:39:00,9.6,1.5,30.26,North,5,4.0,9.0,69,0.00,,FEW250,0.00,VWS V14.01,2013-01-20 13:39:00,
2013-01-20 07:44:00,9.8,1.7,30.27,SW,233,6.0,9.0,69,0.00,,FEW250,0.00,VWS V14.01,2013-01-20 13:44:00,
2013-01-20 07:49:00,9.7,1.9,30.27,WNW,295,4.0,9.0,70,0.00,,FEW250,0.00,VWS V14.01,2013-01-20 13:49:00,
2013-01-20 07:54:00,9.6,1.8,30.28,WNW,286,3.0,9.0,70,0.00,,FEW250,0.00,VWS V14.01,2013-01-20 13:54:00,
2013-01-20 07:59:00,9.7,1.9,30.27,WNW,298,4.0,9.0,70,0.00,,FEW250,0.00,VWS V14.01,2013-01-20 13:59:00,
2013-01-20 08:04:00,9.9,2.1,30.28,WNW,290,1.0,6.0,70,0.00,,FEW250,0.00,VWS V14.01,2013-01-20 14:04:00,
2013-01-20 08:09:00,10.3,2.5,30.27,NW,306,4.0,6.0,70,0.00,,FEW250,0.00,VWS V14.01,2013-01-20 14:09:00,
2013-01-20 08:14:00,10.4,2.3,30.28,WNW,288,5.0,8.0,69,0.00,,FEW250,0.00,VWS V14.01,2013-01-20 14:14:00,
2013-01-20 08:19:00,10.4,2.3,30.28,West,271,3.0,11.0,69,0.00,,FEW250,0.00,VWS V14.01,2013-01-20 14:19:00,
2013-01-20 08:24:00,10.6,2.8,30.28,West,276,3.0,11.0,70,0.00,,FEW250,0.00,VWS V14.01,2013-01-20 14:24:00,
2013-01-20 08:29:00,10.7,3.2,30.28,West,269,6.0,11.0,71,0.00,,FEW250,0.00,VWS V14.01,2013-01-20 14:29:00,
2013-01-20 08:34:00,10.7,3.5,30.29,West,277,11.0,12.0,72,0.00,,FEW250,0.00,VWS V14.01,2013-01-20 14:34:00,
2013-01-20 08:39:00,10.4,2.9,30.29,WNW,291,9.0,12.0,71,0.00,,BKN190,0.00,VWS V14.01,2013-01-20 14:39:00,
2013-01-20 08:44:00,10.2,2.4,30.29,NW,323,6.0,12.0,70,0.00,,BKN190,0.00,VWS V14.01,2013-01-20 14:44:00,
2013-01-20 08:49:00,10.1,2.3,30.29,WNW,291,2.0,16.0,70,0.00,,BKN190,0.00,VWS V14.01,2013-01-20 14:49:00,
2013-01-20 08:54:00,10.2,2.7,30.29,WNW,286,4.0,16.0,71,0.00,,BKN190,0.00,VWS V14.01,2013-01-20 14:54:00,
2013-01-20 08:59:00,10.4,2.6,30.29,NNE,27,5.0,16.0,70,0.00,,BKN190,0.00,VWS V14.01,2013-01-20 14:59:00,
2013-01-20 09:04:00,10.6,2.8,30.29,NNW,344,6.0,11.0,70,0.00,,BKN190,0.00,VWS V14.01,2013-01-20 15:04:00,
2013-01-20 09:09:00,10.8,3.0,30.29,WNW,298,7.0,11.0,70,0.00,,BKN190,0.00,VWS V14.01,2013-01-20 15:09:00,
2013-01-20 09:14:00,11.0,2.5,30.29,NNE,22,5.0,11.0,68,0.00,,BKN190,0.00,VWS V14.01,2013-01-20 15:14:00,
2013-01-20 09:19:00,11.3,2.5,30.29,NNE,32,3.0,11.0,67,0.00,,BKN190,0.00,VWS V14.01,2013-01-20 15:19:00,
2013-01-20 09:24:00,11.3,2.5,30.29,NNW,340,5.0,12.0,67,0.00,,BKN190,0.00,VWS V14.01,2013-01-20 15:24:00,
2013-01-20 09:29:00,11.3,2.5,30.29,NNW,331,5.0,12.0,67,0.00,,BKN190,0.00,VWS V14.01,2013-01-20 15:29:00,
2013-01-20 09:34:00,11.5,2.7,30.30,NW,323,2.0,10.0,67,0.00,,BKN190,0.00,VWS V14.01,2013-01-20 15:34:00,
2013-01-20 09:39:00,11.7,2.9,30.30,West,277,10.0,11.0,67,0.00,,BKN250,0.00,VWS V14.01,2013-01-20 15:39:00,
2013-01-20 09:44:00,11.9,3.1,30.30,West,269,4.0,11.0,67,0.00,,BKN250,0.00,VWS V14.01,2013-01-20 15:44:00,
2013-01-20 09:49:00,12.1,3.3,30.30,WNW,292,4.0,11.0,67,0.00,,BKN250,0.00,VWS V14.01,2013-01-20 15:49:00,
2013-01-20 09:54:00,12.0,2.8,30.30,WNW,302,1.0,11.0,66,0.00,,BKN250,0.00,VWS V14.01,2013-01-20 15:54:00,
2013-01-20 09:59:00,12.5,3.3,30.29,WNW,292,1.0,11.0,66,0.00,,BKN250,0.00,VWS V14.01,2013-01-20 15:59:00,
2013-01-20 10:04:00,12.8,3.9,30.29,NNE,26,3.0,7.0,67,0.00,,BKN250,0.00,VWS V14.01,2013-01-20 16:04:00,
2013-01-20 10:09:00,13.4,3.8,30.29,WNW,296,5.0,7.0,65,0.00,,BKN250,0.00,VWS V14.01,2013-01-20 16:09:00,
2013-01-20 10:14:00,13.1,3.6,30.29,WNW,296,5.0,10.0,65,0.00,,BKN250,0.00,VWS V14.01,2013-01-20 16:14:00,
2013-01-20 10:19:00,13.1,3.6,30.30,WNW,302,6.0,10.0,65,0.00,,BKN250,0.00,VWS V14.01,2013-01-20 16:19:00,
2013-01-20 10:24:00,12.8,3.6,30.30,West,277,3.0,10.0,66,0.00,,BKN250,0.00,VWS V14.01,2013-01-20 16:24:00,
2013-01-20 10:29:00,12.9,4.0,30.31,West,269,3.0,10.0,67,0.00,,BKN250,0.00,VWS V14.01,2013-01-20 16:29:00,
2013-01-20 10:34:00,13.4,4.2,30.30,NE,43,0.0,7.0,66,0.00,,BKN250,0.00,VWS V14.01,2013-01-20 16:34:00,
2013-01-20 10:39:00,13.8,4.6,30.30,NW,309,6.0,10.0,66,0.00,,SCT250,0.00,VWS V14.01,2013-01-20 16:39:00,
2013-01-20 10:44:00,13.8,4.6,30.31,WNW,285,12.0,12.0,66,0.00,,SCT250,0.00,VWS V14.01,2013-01-20 16:44:00,
2013-01-20 10:49:00,13.9,4.3,30.31,West,275,2.0,12.0,65,0.00,,SCT250,0.00,VWS V14.01,2013-01-20 16:49:00,
2013-01-20 10:54:00,14.7,5.1,30.30,NW,304,0.0,12.0,65,0.00,,SCT250,0.00,VWS V14.01,2013-01-20 16:54:00,
2013-01-20 10:59:00,14.4,4.1,30.30,NW,304,9.0,13.0,63,0.00,,SCT250,0.00,VWS V14.01,2013-01-20 16:59:00,
2013-01-20 11:04:00,14.0,3.7,30.30,WNW,290,10.0,11.0,63,0.00,,SCT250,0.00,VWS V14.01,2013-01-20 17:04:00,
2013-01-20 11:09:00,13.7,4.1,30.30,West,277,11.0,11.0,65,0.00,,SCT250,0.00,VWS V14.01,2013-01-20 17:09:00,
2013-01-20 11:14:00,13.7,3.8,30.30,NNW,342,12.0,14.0,64,0.00,,SCT250,0.00,VWS V14.01,2013-01-20 17:14:00,
2013-01-20 11:19:00,13.8,3.9,30.29,WNW,300,9.0,14.0,64,0.00,,SCT250,0.00,VWS V14.01,2013-01-20 17:19:00,
2013-01-20 11:24:00,14.0,4.4,30.29,NNW,329,6.0,14.0,65,0.00,,SCT250,0.00,VWS V14.01,2013-01-20 17:24:00,
2013-01-20 11:29:00,14.0,4.1,30.28,WNW,300,8.0,14.0,64,0.00,,SCT250,0.00,VWS V14.01,2013-01-20 17:29:00,
2013-01-20 11:34:00,14.1,4.8,30.28,WSW,250,1.0,10.0,66,0.00,,SCT250,0.00,VWS V14.01,2013-01-20 17:34:00,
2013-01-20 11:39:00,14.5,4.6,30.28,WNW,284,9.0,10.0,64,0.00,,BKN250,0.00,VWS V14.01,2013-01-20 17:39:00,
2013-01-20 11:44:00,14.5,4.6,30.29,NNW,331,5.0,12.0,64,0.00,,BKN250,0.00,VWS V14.01,2013-01-20 17:44:00,
2013-01-20 11:49:00,14.5,4.9,30.29,WNW,295,11.0,14.0,65,0.00,,BKN250,0.00,VWS V14.01,2013-01-20 17:49:00,
2013-01-20 11:54:00,14.4,4.1,30.28,NNW,346,4.0,14.0,63,0.00,,BKN250,0.00,VWS V14.01,2013-01-20 17:54:00,
2013-01-20 11:59:00,14.4,4.1,30.28,NW,319,4.0,15.0,63,0.00,,BKN250,0.00,VWS V14.01,2013-01-20 17:59:00,
2013-01-20 12:04:00,14.4,4.1,30.28,WNW,288,7.0,11.0,63,0.00,,BKN250,0.00,VWS V14.01,2013-01-20 18:04:00,
2013-01-20 12:09:00,14.6,4.7,30.28,NW,323,6.0,11.0,64,0.00,,BKN250,0.00,VWS V14.01,2013-01-20 18:09:00,
2013-01-20 12:14:00,15.1,4.8,30.28,WNW,291,11.0,11.0,63,0.00,,BKN250,0.00,VWS V14.01,2013-01-20 18:14:00,
2013-01-20 12:19:00,15.1,4.4,30.27,WNW,292,5.0,11.0,62,0.00,,BKN250,0.00,VWS V14.01,2013-01-20 18:19:00,
2013-01-20 12:24:00,15.2,4.5,30.27,WNW,295,3.0,11.0,62,0.00,,BKN250,0.00,VWS V14.01,2013-01-20 18:24:00,
2013-01-20 12:29:00,15.3,4.3,30.27,WSW,242,4.0,11.0,61,0.00,,BKN250,0.00,VWS V14.01,2013-01-20 18:29:00,
2013-01-20 12:34:00,15.5,4.8,30.27,North,351,7.0,11.0,62,0.00,,BKN250,0.00,VWS V14.01,2013-01-20 18:34:00,
2013-01-20 12:39:00,15.4,4.4,30.27,WNW,286,5.0,14.0,61,0.00,,BKN250,0.00,VWS V14.01,2013-01-20 18:39:00,
2013-01-20 12:44:00,15.4,4.7,30.27,NW,315,1.0,14.0,62,0.00,,BKN250,0.00,VWS V14.01,2013-01-20 18:44:00,
2013-01-20 12:49:00,15.4,4.4,30.27,WNW,291,2.0,14.0,61,0.00,,BKN250,0.00,VWS V14.01,2013-01-20 18:49:00,
2013-01-20 12:54:00,15.2,3.8,30.27,WSW,246,8.0,14.0,60,0.00,,BKN250,0.00,VWS V14.01,2013-01-20 18:54:00,
2013-01-20 12:59:00,15.3,3.9,30.26,NNW,329,8.0,15.0,60,0.00,,BKN250,0.00,VWS V14.01,2013-01-20 18:59:00,
2013-01-20 13:04:00,15.4,4.4,30.26,WNW,292,2.0,9.0,61,0.00,,BKN250,0.00,VWS V14.01,2013-01-20 19:04:00,
2013-01-20 13:09:00,15.7,4.3,30.26,West,268,10.0,10.0,60,0.00,,BKN250,0.00,VWS V14.01,2013-01-20 19:09:00,
2013-01-20 13:14:00,15.8,4.4,30.25,West,261,1.0,10.0,60,0.00,,BKN250,0.00,VWS V14.01,2013-01-20 19:14:00,
2013-01-20 13:19:00,15.7,4.7,30.25,WNW,287,3.0,12.0,61,0.00,,BKN250,0.00,VWS V14.01,2013-01-20 19:19:00,
2013-01-20 13:24:00,15.7,4.7,30.25,NNW,329,2.0,12.0,61,0.00,,BKN250,0.00,VWS V14.01,2013-01-20 19:24:00,
2013-01-20 13:29:00,15.8,4.8,30.25,NNE,27,3.0,12.0,61,0.00,,BKN250,0.00,VWS V14.01,2013-01-20 19:29:00,
2013-01-20 13:34:00,16.2,4.4,30.25,NW,309,2.0,8.0,59,0.00,,BKN250,0.00,VWS V14.01,2013-01-20 19:34:00,
2013-01-20 13:39:00,16.8,4.6,30.25,NW,309,2.0,9.0,58,0.00,,BKN250,0.00,VWS V14.01,2013-01-20 19:39:00,
2013-01-20 13:44:00,16.9,4.3,30.25,West,271,6.0,9.0,57,0.00,,BKN250,0.00,VWS V14.01,2013-01-20 19:44:00,
2013-01-20 13:49:00,16.7,4.1,30.26,WNW,299,8.0,10.0,57,0.00,,BKN250,0.00,VWS V14.01,2013-01-20 19:49:00,
2013-01-20 13:54:00,16.8,4.6,30.25,WNW,285,6.0,10.0,58,0.00,,BKN250,0.00,VWS V14.01,2013-01-20 19:54:00,
2013-01-20 13:59:00,16.6,4.0,30.26,West,275,6.0,12.0,57,0.00,,BKN250,0.00,VWS V14.01,2013-01-20 19:59:00,
2013-01-20 14:04:00,16.4,4.6,30.27,NW,310,5.0,11.0,59,0.00,,BKN250,0.00,VWS V14.01,2013-01-20 20:04:00,
2013-01-20 14:09:00,16.7,4.1,30.26,NE,35,6.0,11.0,57,0.00,,BKN250,0.00,VWS V14.01,2013-01-20 20:09:00,
2013-01-20 14:14:00,16.9,4.3,30.26,West,273,4.0,11.0,57,0.00,,BKN250,0.00,VWS V14.01,2013-01-20 20:14:00,
2013-01-20 14:19:00,17.1,5.2,30.26,NNW,340,4.0,11.0,59,0.00,,BKN250,0.00,VWS V14.01,2013-01-20 20:19:00,
2013-01-20 14:24:00,17.3,4.3,30.25,WNW,286,5.0,11.0,56,0.00,,BKN250,0.00,VWS V14.01,2013-01-20 20:24:00,
2013-01-20 14:29:00,17.4,4.8,30.25,WNW,302,5.0,11.0,57,0.00,,BKN250,0.00,VWS V14.01,2013-01-20 20:29:00,
2013-01-20 14:34:00,17.0,4.0,30.25,NNW,330,5.0,12.0,56,0.00,,BKN250,0.00,VWS V14.01,2013-01-20 20:34:00,
2013-01-20 14:39:00,17.0,4.4,30.25,West,273,2.0,12.0,57,0.00,,BKN250,0.00,VWS V14.01,2013-01-20 20:39:00,
2013-01-20 14:44:00,17.0,4.4,30.26,WNW,293,2.0,12.0,57,0.00,,BKN250,0.00,VWS V14.01,2013-01-20 20:44:00,
2013-01-20 14:49:00,16.8,3.8,30.26,West,275,4.0,12.0,56,0.00,,BKN250,0.00,VWS V14.01,2013-01-20 20:49:00,
2013-01-20 14:54:00,16.8,3.8,30.26,West,275,7.0,12.0,56,0.00,,BKN250,0.00,VWS V14.01,2013-01-20 20:54:00,
2013-01-20 14:59:00,16.8,3.8,30.26,West,279,6.0,12.0,56,0.00,,BKN250,0.00,VWS V14.01,2013-01-20 20:59:00,
2013-01-20 15:04:00,16.9,3.9,30.26,West,272,5.0,10.0,56,0.00,,BKN250,0.00,VWS V14.01,2013-01-20 21:04:00,
2013-01-20 15:09:00,16.9,3.9,30.26,ESE,111,8.0,11.0,56,0.00,,BKN250,0.00,VWS V14.01,2013-01-20 21:09:00,
2013-01-20 15:14:00,16.9,3.9,30.26,NW,323,4.0,11.0,56,0.00,,BKN250,0.00,VWS V14.01,2013-01-20 21:14:00,
2013-01-20 15:19:00,16.9,3.9,30.26,North,351,2.0,11.0,56,0.00,,BKN250,0.00,VWS V14.01,2013-01-20 21:19:00,
2013-01-20 15:24:00,16.9,3.9,30.26,WNW,283,7.0,15.0,56,0.00,,BKN250,0.00,VWS V14.01,2013-01-20 21:24:00,
2013-01-20 15:29:00,16.7,3.3,30.26,NW,309,6.0,16.0,55,0.00,,BKN250,0.00,VWS V14.01,2013-01-20 21:29:00,
2013-01-20 15:34:00,16.7,3.7,30.25,WNW,283,3.0,10.0,56,0.00,,BKN250,0.00,VWS V14.01,2013-01-20 21:34:00,
2013-01-20 15:39:00,16.8,3.8,30.26,West,277,2.0,10.0,56,0.00,,BKN110,0.00,VWS V14.01,2013-01-20 21:39:00,
2013-01-20 15:44:00,16.8,3.5,30.26,WSW,253,2.0,10.0,55,0.00,,BKN110,0.00,VWS V14.01,2013-01-20 21:44:00,
2013-01-20 15:49:00,16.7,3.7,30.26,NW,309,2.0,10.0,56,0.00,,BKN110,0.00,VWS V14.01,2013-01-20 21:49:00,
2013-01-20 15:54:00,16.6,3.3,30.26,WNW,298,5.0,10.0,55,0.00,,BKN110,0.00,VWS V14.01,2013-01-20 21:54:00,
2013-01-20 15:59:00,16.5,3.2,30.25,West,276,3.0,10.0,55,0.00,,BKN110,0.00,VWS V14.01,2013-01-20 21:59:00,
2013-01-20 16:04:00,16.4,2.7,30.26,WNW,302,4.0,9.0,54,0.00,,BKN110,0.00,VWS V14.01,2013-01-20 22:04:00,
2013-01-20 16:09:00,16.3,2.6,30.26,WSW,246,4.0,9.0,54,0.00,,BKN110,0.00,VWS V14.01,2013-01-20 22:09:00,
2013-01-20 16:14:00,16.3,3.0,30.26,NNW,337,2.0,10.0,55,0.00,,BKN110,0.00,VWS V14.01,2013-01-20 22:14:00,
2013-01-20 16:19:00,16.2,3.3,30.25,NNW,333,1.0,10.0,56,0.00,,BKN110,0.00,VWS V14.01,2013-01-20 22:19:00,
2013-01-20 16:24:00,16.1,2.8,30.26,NW,313,4.0,10.0,55,0.00,,BKN110,0.00,VWS V14.01,2013-01-20 22:24:00,
2013-01-20 16:29:00,15.9,3.0,30.26,WNW,284,6.0,10.0,56,0.00,,BKN110,0.00,VWS V14.01,2013-01-20 22:29:00,
2013-01-20 16:34:00,15.8,2.5,30.26,WNW,285,9.0,13.0,55,0.00,,BKN110,0.00,VWS V14.01,2013-01-20 22:34:00,
2013-01-20 16:39:00,15.6,1.9,30.26,West,263,4.0,13.0,54,0.00,,BKN100,0.00,VWS V14.01,2013-01-20 22:39:00,
2013-01-20 16:44:00,15.5,2.2,30.27,West,277,5.0,13.0,55,0.00,,BKN100,0.00,VWS V14.01,2013-01-20 22:44:00,
2013-01-20 16:49:00,15.3,2.8,30.27,WSW,245,3.0,13.0,57,0.00,,BKN100,0.00,VWS V14.01,2013-01-20 22:49:00,
2013-01-20 16:54:00,15.2,3.1,30.27,WSW,250,5.0,13.0,58,0.00,,BKN100,0.00,VWS V14.01,2013-01-20 22:54:00,
2013-01-20 16:59:00,15.2,2.7,30.27,WNW,292,5.0,13.0,57,0.00,,BKN100,0.00,VWS V14.01,2013-01-20 22:59:00,
2013-01-20 17:04:00,15.2,3.1,30.27,WNW,284,6.0,8.0,58,0.00,,BKN100,0.00,VWS V14.01,2013-01-20 23:04:00,
2013-01-20 17:09:00,15.2,2.7,30.27,WNW,292,4.0,8.0,57,0.00,,BKN100,0.00,VWS V14.01,2013-01-20 23:09:00,
2013-01-20 17:14:00,15.1,3.0,30.27,West,281,4.0,10.0,58,0.00,,BKN100,0.00,VWS V14.01,2013-01-20 23:14:00,
2013-01-20 17:19:00,15.0,3.3,30.27,WNW,291,5.0,10.0,59,0.00,,BKN100,0.00,VWS V14.01,2013-01-20 23:19:00,
2013-01-20 17:24:00,15.0,2.9,30.27,West,265,6.0,10.0,58,0.00,,BKN100,0.00,VWS V14.01,2013-01-20 23:24:00,
2013-01-20 17:29:00,15.0,3.6,30.27,NW,304,2.0,10.0,60,0.00,,BKN100,0.00,VWS V14.01,2013-01-20 23:29:00,
2013-01-20 17:34:00,14.9,3.5,30.27,WNW,290,1.0,11.0,60,0.00,,BKN100,0.00,VWS V14.01,2013-01-20 23:34:00,
2013-01-20 17:39:00,14.9,3.5,30.26,NW,319,2.0,11.0,60,0.00,,BKN100,0.00,VWS V14.01,2013-01-20 23:39:00,
2013-01-20 17:44:00,14.8,3.1,30.26,WNW,296,0.0,11.0,59,0.00,,BKN100,0.00,VWS V14.01,2013-01-20 23:44:00,
2013-01-20 17:49:00,14.7,3.0,30.27,WNW,290,3.0,11.0,59,0.00,,BKN100,0.00,VWS V14.01,2013-01-20 23:49:00,
2013-01-20 17:54:00,14.5,2.8,30.27,WNW,287,5.0,11.0,59,0.00,,BKN100,0.00,VWS V14.01,2013-01-20 23:54:00,
2013-01-20 17:59:00,14.4,3.1,30.27,West,272,5.0,11.0,60,0.00,,BKN100,0.00,VWS V14.01,2013-01-20 23:59:00,
2013-01-20 18:04:00,14.3,3.0,30.27,WNW,287,3.0,6.0,60,0.00,,BKN100,0.00,VWS V14.01,2013-01-21 00:04:00,
2013-01-20 18:09:00,14.2,2.9,30.27,WNW,284,6.0,6.0,60,0.00,,BKN080,0.00,VWS V14.01,2013-01-21 00:09:00,
2013-01-20 18:14:00,14.1,3.5,30.27,NNW,344,3.0,6.0,62,0.00,,BKN080,0.00,VWS V14.01,2013-01-21 00:14:00,
2013-01-20 18:19:00,14.1,3.5,30.27,West,276,6.0,7.0,62,0.00,,BKN080,0.00,VWS V14.01,2013-01-21 00:19:00,
2013-01-20 18:24:00,14.0,3.4,30.27,WNW,290,8.0,8.0,62,0.00,,BKN080,0.00,VWS V14.01,2013-01-21 00:24:00,
2013-01-20 18:29:00,14.0,3.7,30.27,WNW,298,0.0,8.0,63,0.00,,BKN080,0.00,VWS V14.01,2013-01-21 00:29:00,
2013-01-20 18:34:00,13.9,3.6,30.27,NW,311,4.0,4.0,63,0.00,,BKN080,0.00,VWS V14.01,2013-01-21 00:34:00,
2013-01-20 18:39:00,13.8,3.5,30.27,West,276,3.0,6.0,63,0.00,,BKN080,0.00,VWS V14.01,2013-01-21 00:39:00,
2013-01-20 18:44:00,13.7,3.8,30.28,WNW,287,3.0,8.0,64,0.00,,BKN080,0.00,VWS V14.01,2013-01-21 00:44:00,
2013-01-20 18:49:00,13.7,4.1,30.28,WNW,291,3.0,8.0,65,0.00,,BKN080,0.00,VWS V14.01,2013-01-21 00:49:00,
2013-01-20 18:54:00,13.7,4.1,30.27,WNW,292,4.0,8.0,65,0.00,,BKN080,0.00,VWS V14.01,2013-01-21 00:54:00,
2013-01-20 18:59:00,13.6,4.0,30.27,WNW,292,4.0,8.0,65,0.00,,BKN080,0.00,VWS V14.01,2013-01-21 00:59:00,
2013-01-20 19:04:00,13.5,3.9,30.27,West,272,3.0,4.0,65,0.00,,BKN080,0.00,VWS V14.01,2013-01-21 01:04:00,
2013-01-20 19:09:00,13.3,3.8,30.27,WNW,288,1.0,5.0,65,0.00,,BKN080,0.00,VWS V14.01,2013-01-21 01:09:00,
2013-01-20 19:14:00,13.2,3.7,30.27,West,274,2.0,5.0,65,0.00,,BKN080,0.00,VWS V14.01,2013-01-21 01:14:00,
2013-01-20 19:19:00,13.0,3.5,30.26,WNW,288,5.0,5.0,65,0.00,,BKN080,0.00,VWS V14.01,2013-01-21 01:19:00,
2013-01-20 19:24:00,12.9,3.7,30.27,West,274,3.0,5.0,66,0.00,,BKN080,0.00,VWS V14.01,2013-01-21 01:24:00,
2013-01-20 19:29:00,12.8,3.6,30.26,NNE,19,3.0,5.0,66,0.00,,BKN080,0.00,VWS V14.01,2013-01-21 01:29:00,
2013-01-20 19:34:00,12.9,3.7,30.26,WNW,294,4.0,6.0,66,0.00,,BKN080,0.00,VWS V14.01,2013-01-21 01:34:00,
2013-01-20 19:39:00,12.8,3.6,30.26,WNW,298,0.0,6.0,66,0.00,,FEW090,0.00,VWS V14.01,2013-01-21 01:39:00,
2013-01-20 19:44:00,12.8,3.6,30.26,WNW,295,2.0,6.0,66,0.00,,FEW090,0.00,VWS V14.01,2013-01-21 01:44:00,
2013-01-20 19:49:00,12.8,3.6,30.26,NW,309,0.0,6.0,66,0.00,,FEW090,0.00,VWS V14.01,2013-01-21 01:49:00,
2013-01-20 19:54:00,12.7,3.8,30.26,WNW,297,6.0,6.0,67,0.00,,FEW090,0.00,VWS V14.01,2013-01-21 01:54:00,
2013-01-20 19:59:00,12.6,3.4,30.26,North,11,1.0,6.0,66,0.00,,FEW090,0.00,VWS V14.01,2013-01-21 01:59:00,
2013-01-20 20:04:00,12.6,3.4,30.26,NW,309,3.0,5.0,66,0.00,,FEW090,0.00,VWS V14.01,2013-01-21 02:04:00,
2013-01-20 20:09:00,12.7,3.5,30.26,WNW,298,6.0,6.0,66,0.00,,FEW090,0.00,VWS V14.01,2013-01-21 02:09:00,
2013-01-20 20:14:00,12.7,3.5,30.26,WNW,283,3.0,6.0,66,0.00,,FEW090,0.00,VWS V14.01,2013-01-21 02:14:00,
2013-01-20 20:19:00,12.7,3.8,30.26,WSW,252,3.0,6.0,67,0.00,,FEW090,0.00,VWS V14.01,2013-01-21 02:19:00,
2013-01-20 20:24:00,12.6,3.4,30.26,WNW,287,2.0,7.0,66,0.00,,FEW090,0.00,VWS V14.01,2013-01-21 02:24:00,
2013-01-20 20:29:00,12.6,3.4,30.26,WNW,298,6.0,8.0,66,0.00,,FEW090,0.00,VWS V14.01,2013-01-21 02:29:00,
2013-01-20 20:34:00,12.6,3.7,30.26,WNW,292,4.0,6.0,67,0.00,,FEW090,0.00,VWS V14.01,2013-01-21 02:34:00,
2013-01-20 20:39:00,12.5,3.6,30.26,North,5,5.0,6.0,67,0.00,,BKN100,0.00,VWS V14.01,2013-01-21 02:39:00,
2013-01-20 20:44:00,12.4,3.5,30.26,WNW,287,5.0,7.0,67,0.00,,BKN100,0.00,VWS V14.01,2013-01-21 02:44:00,
2013-01-20 20:49:00,12.4,3.5,30.26,WNW,283,2.0,7.0,67,0.00,,BKN100,0.00,VWS V14.01,2013-01-21 02:49:00,
2013-01-20 20:54:00,12.3,3.5,30.26,NW,318,2.0,8.0,67,0.00,,BKN100,0.00,VWS V14.01,2013-01-21 02:54:00,
2013-01-20 20:59:00,12.3,3.5,30.26,WNW,287,2.0,8.0,67,0.00,,BKN100,0.00,VWS V14.01,2013-01-21 02:59:00,
2013-01-20 21:04:00,12.2,3.7,30.25,WNW,282,3.0,6.0,68,0.00,,BKN100,0.00,VWS V14.01,2013-01-21 03:04:00,
2013-01-20 21:09:00,12.2,3.7,30.25,WNW,288,4.0,8.0,68,0.00,,BKN100,0.00,VWS V14.01,2013-01-21 03:09:00,
2013-01-20 21:14:00,12.1,3.9,30.25,WNW,283,4.0,8.0,69,0.00,,BKN100,0.00,VWS V14.01,2013-01-21 03:14:00,
2013-01-20 21:19:00,12.0,3.8,30.25,WNW,283,2.0,8.0,69,0.00,,BKN100,0.00,VWS V14.01,2013-01-21 03:19:00,
2013-01-20 21:24:00,12.0,3.8,30.25,WNW,294,3.0,8.0,69,0.00,,BKN100,0.00,VWS V14.01,2013-01-21 03:24:00,
2013-01-20 21:29:00,12.0,4.1,30.25,WNW,288,5.0,8.0,70,0.00,,BKN100,0.00,VWS V14.01,2013-01-21 03:29:00,
2013-01-20 21:34:00,11.9,4.3,30.25,West,271,3.0,5.0,71,0.00,,BKN100,0.00,VWS V14.01,2013-01-21 03:34:00,
2013-01-20 21:50:00,11.9,4.0,30.24,West,267,4.0,9.0,71,0.00,,,0.00,weatherlink.com 1.10,2013-01-21 03:50:00,
2013-01-20 22:00:00,11.8,4.2,30.24,WNW,292,4.0,9.0,71,0.00,,BKN100,0.00,VWS V14.01,2013-01-21 04:00:00,
2013-01-20 22:05:00,11.8,4.0,30.24,WNW,286,5.0,10.0,71,0.00,,,0.00,weatherlink.com 1.10,2013-01-21 04:05:00,
2013-01-20 22:20:00,11.9,4.0,30.24,NW,306,7.0,11.0,70,0.00,,,0.00,weatherlink.com 1.10,2013-01-21 04:20:00,
2013-01-20 22:30:00,12.2,4.0,30.24,WNW,292,4.0,11.0,69,0.00,,BKN100,0.00,VWS V14.01,2013-01-21 04:30:00,
2013-01-20 22:35:00,12.4,4.0,30.24,WNW,284,6.0,14.0,69,0.00,,,0.00,weatherlink.com 1.10,2013-01-21 04:35:00,
2013-01-20 22:51:00,12.6,4.0,30.24,WNW,292,9.0,13.0,69,0.00,,,0.00,weatherlink.com 1.10,2013-01-21 04:51:00,
2013-01-20 23:00:00,12.5,4.3,30.24,WNW,292,7.0,14.0,69,0.00,,BKN100,0.00,VWS V14.01,2013-01-21 05:00:00,
2013-01-20 23:06:00,12.4,4.0,30.24,West,263,8.0,14.0,69,0.00,,,0.00,weatherlink.com 1.10,2013-01-21 05:06:00,
2013-01-20 23:21:00,12.1,4.0,30.23,WNW,300,8.0,13.0,69,0.00,,,0.00,weatherlink.com 1.10,2013-01-21 05:21:00,
2013-01-20 23:30:00,11.9,4.0,30.23,WNW,292,6.0,14.0,70,0.00,,BKN100,0.00,VWS V14.01,2013-01-21 05:30:00,
2013-01-20 23:36:00,11.9,4.0,30.23,WNW,292,5.0,12.0,70,0.00,,,0.00,weatherlink.com 1.10,2013-01-21 05:36:00,
2013-01-20 23:51:00,11.6,4.0,30.22,WNW,292,4.0,14.0,70,0.00,,,0.00,weatherlink.com 1.10,2013-01-21 05:51:00,